createdAt,value
2024-02-19T00:01:23.282Z,5.40
2024-02-19T00:03:52.055Z,5.93
2024-02-19T00:06:20.166Z,5.70
2024-02-19T00:08:48.185Z,5.37
2024-02-19T00:11:16.277Z,4.80
2024-02-19T00:13:45.182Z,5.57
2024-02-19T00:16:13.281Z,4.70
2024-02-19T00:18:42.900Z,4.67
2024-02-19T00:21:10.989Z,3.47
2024-02-19T00:23:39.074Z,4.30
2024-02-19T00:26:07.105Z,2.83
2024-02-19T00:28:35.164Z,2.50
2024-02-19T00:31:03.225Z,2.90
2024-02-19T00:33:32.747Z,2.77
2024-02-19T00:36:02.926Z,2.40
2024-02-19T00:38:30.924Z,1.20
2024-02-19T00:40:58.993Z,1.27
2024-02-19T00:43:27.877Z,1.53
2024-02-19T00:45:55.954Z,1.77
2024-02-19T00:48:24.511Z,2.07
2024-02-19T00:50:52.577Z,1.13
2024-02-19T00:53:22.007Z,1.37
2024-02-19T00:55:52.695Z,1.00
2024-02-19T00:58:22.029Z,1.30
2024-02-19T01:00:50.909Z,0.80
2024-02-19T01:03:19.254Z,1.30
2024-02-19T01:05:47.448Z,2.30
2024-02-19T01:08:15.551Z,1.77
2024-02-19T01:10:45.058Z,1.60
2024-02-19T01:13:13.957Z,1.70
2024-02-19T01:15:42.078Z,1.67
2024-02-19T01:18:10.121Z,1.37
2024-02-19T01:20:38.316Z,1.00
2024-02-19T01:23:06.382Z,1.77
2024-02-19T01:25:35.344Z,2.43
2024-02-19T01:28:05.308Z,1.37
2024-02-19T01:30:33.400Z,1.20
2024-02-19T01:33:02.831Z,2.47
2024-02-19T01:35:31.012Z,0.83
2024-02-19T01:37:59.078Z,1.07
2024-02-19T01:40:27.124Z,1.60
2024-02-19T01:43:03.646Z,3.27
2024-02-19T01:45:33.564Z,1.77
2024-02-19T01:48:02.125Z,1.07
2024-02-19T01:50:32.473Z,1.93
2024-02-19T01:53:02.604Z,0.90
2024-02-19T01:55:31.072Z,1.90
2024-02-19T01:58:00.232Z,2.50
2024-02-19T02:00:29.465Z,0.80
2024-02-19T02:02:59.037Z,2.23
2024-02-19T02:05:27.130Z,1.80
2024-02-19T02:07:55.490Z,1.93
2024-02-19T02:10:23.776Z,0.70
2024-02-19T02:12:51.877Z,4.63
2024-02-19T02:15:20.111Z,1.93
2024-02-19T02:17:48.184Z,0.70
2024-02-19T02:20:17.783Z,1.40
2024-02-19T02:22:46.006Z,0.90
2024-02-19T02:25:14.086Z,1.47
2024-02-19T02:27:43.635Z,3.27
2024-02-19T02:30:12.598Z,1.60
2024-02-19T02:32:40.692Z,1.70
2024-02-19T02:35:08.945Z,1.00
2024-02-19T02:37:36.984Z,3.27
2024-02-19T02:40:05.572Z,5.07
2024-02-19T02:42:33.618Z,1.93
2024-02-19T02:45:03.070Z,2.67
2024-02-19T02:47:31.108Z,0.97
2024-02-19T02:49:59.286Z,1.40
2024-02-19T02:52:27.673Z,0.80
2024-02-19T02:54:55.698Z,2.33
2024-02-19T02:57:23.733Z,1.60
2024-02-19T02:59:51.764Z,2.67
2024-02-19T03:02:21.187Z,1.63
2024-02-19T03:04:49.284Z,0.77
2024-02-19T03:07:17.704Z,1.20
2024-02-19T03:09:45.877Z,3.20
2024-02-19T03:12:13.917Z,0.80
2024-02-19T03:14:42.425Z,1.67
2024-02-19T03:17:10.757Z,0.87
2024-02-19T03:19:40.250Z,3.50
2024-02-19T03:22:08.810Z,1.00
2024-02-19T03:24:36.921Z,0.50
2024-02-19T03:27:05.448Z,0.53
2024-02-19T03:29:33.713Z,1.47
2024-02-19T03:32:01.797Z,3.90
2024-02-19T03:34:29.948Z,3.43
2024-02-19T03:36:59.464Z,0.57
2024-02-19T03:39:27.700Z,1.50
2024-02-19T03:41:56.467Z,0.97
2024-02-19T03:44:24.481Z,2.77
2024-02-19T03:46:52.529Z,1.80
2024-02-19T03:49:20.674Z,0.80
2024-02-19T03:51:48.762Z,1.63
2024-02-19T03:54:18.282Z,0.70
2024-02-19T03:56:46.330Z,0.60
2024-02-19T03:59:14.365Z,2.00
2024-02-19T04:01:42.862Z,2.87
2024-02-19T04:04:11.058Z,0.63
2024-02-19T04:06:39.286Z,1.20
2024-02-19T04:09:07.409Z,2.23
2024-02-19T04:11:37.046Z,2.10
2024-02-19T04:14:05.103Z,0.87
2024-02-19T04:16:33.140Z,0.47
2024-02-19T04:19:01.310Z,0.60
2024-02-19T04:21:29.369Z,1.00
2024-02-19T04:23:57.429Z,1.60
2024-02-19T04:26:25.445Z,2.47
2024-02-19T04:28:57.410Z,1.70
2024-02-19T04:31:25.482Z,1.10
2024-02-19T04:33:53.635Z,1.50
2024-02-19T04:36:21.777Z,2.47
2024-02-19T04:38:49.788Z,2.63
2024-02-19T04:41:17.831Z,3.30
2024-02-19T04:43:45.881Z,1.07
2024-02-19T04:46:15.450Z,0.50
2024-02-19T04:48:43.710Z,6.33
2024-02-19T04:51:11.786Z,0.30
2024-02-19T04:53:39.824Z,0.50
2024-02-19T04:56:08.518Z,1.13
2024-02-19T04:58:36.612Z,1.60
2024-02-19T05:01:04.842Z,1.60
2024-02-19T05:03:34.451Z,1.23
2024-02-19T05:06:02.492Z,1.07
2024-02-19T05:08:30.533Z,1.97
2024-02-19T05:10:58.697Z,1.90
2024-02-19T05:13:26.799Z,1.23
2024-02-19T05:15:54.952Z,0.50
2024-02-19T05:18:23.388Z,1.03
2024-02-19T05:20:52.861Z,1.50
2024-02-19T05:23:20.896Z,0.77
2024-02-19T05:25:48.951Z,0.80
2024-02-19T05:28:16.994Z,0.70
2024-02-19T05:30:45.414Z,0.73
2024-02-19T05:33:14.275Z,3.07
2024-02-19T05:35:42.468Z,0.70
2024-02-19T05:38:13.070Z,1.33
2024-02-19T05:40:41.188Z,0.63
2024-02-19T05:43:09.495Z,0.67
2024-02-19T05:45:37.632Z,0.60
2024-02-19T05:48:06.422Z,0.97
2024-02-19T05:50:34.566Z,2.57
2024-02-19T05:53:02.989Z,0.53
2024-02-19T05:55:32.787Z,1.27
2024-02-19T05:58:00.899Z,0.73
2024-02-19T06:00:28.978Z,0.70
2024-02-19T06:02:57.280Z,1.50
2024-02-19T06:05:25.467Z,0.63
2024-02-19T06:07:53.571Z,1.33
2024-02-19T06:10:21.675Z,0.73
2024-02-19T06:12:51.981Z,0.97
2024-02-19T06:15:20.052Z,1.27
2024-02-19T06:17:48.323Z,0.73
2024-02-19T06:20:16.919Z,0.50
2024-02-19T06:22:44.973Z,1.40
2024-02-19T06:25:13.456Z,0.70
2024-02-19T06:27:41.528Z,3.17
2024-02-19T06:30:11.706Z,1.27
2024-02-19T06:32:39.722Z,1.37
2024-02-19T06:35:08.841Z,0.60
2024-02-19T06:37:37.034Z,1.67
2024-02-19T06:40:05.742Z,0.77
2024-02-19T06:42:33.824Z,1.70
2024-02-19T06:45:01.861Z,1.00
2024-02-19T06:47:31.297Z,1.50
2024-02-19T06:49:59.398Z,0.83
2024-02-19T06:52:27.560Z,0.67
2024-02-19T06:54:55.586Z,1.17
2024-02-19T06:57:23.663Z,0.60
2024-02-19T06:59:51.710Z,1.00
2024-02-19T07:02:21.416Z,3.00
2024-02-19T07:04:50.953Z,1.80
2024-02-19T07:07:19.065Z,1.20
2024-02-19T07:09:47.189Z,1.53
2024-02-19T07:12:15.683Z,1.20
2024-02-19T07:14:43.106Z,1.33
2024-02-19T07:17:11.559Z,2.60
2024-02-19T07:19:39.853Z,3.00
2024-02-19T07:22:09.398Z,2.43
2024-02-19T07:24:39.721Z,3.33
2024-02-19T07:27:07.853Z,2.23
2024-02-19T07:29:35.882Z,3.40
2024-02-19T07:32:03.959Z,4.43
2024-02-19T07:34:32.071Z,3.10
2024-02-19T07:37:00.210Z,1.73
2024-02-19T07:39:29.629Z,3.70
2024-02-19T07:41:57.663Z,4.77
2024-02-19T07:44:25.710Z,3.90
2024-02-19T07:46:53.809Z,3.73
2024-02-19T07:49:21.946Z,3.17
2024-02-19T07:51:50.074Z,4.13
2024-02-19T07:54:18.128Z,2.60
2024-02-19T07:56:47.676Z,3.57
2024-02-19T07:59:16.269Z,3.07
2024-02-19T08:01:44.361Z,3.63
2024-02-19T08:04:12.514Z,7.37
2024-02-19T08:06:40.650Z,3.90
2024-02-19T08:09:08.936Z,4.27
2024-02-19T08:11:37.039Z,3.50
2024-02-19T08:14:06.550Z,2.90
2024-02-19T08:16:34.638Z,4.07
2024-02-19T08:19:02.929Z,5.03
2024-02-19T08:21:31.097Z,5.63
2024-02-19T08:23:59.107Z,6.70
2024-02-19T08:26:27.152Z,3.83
2024-02-19T08:28:55.165Z,5.00
2024-02-19T08:31:28.562Z,5.03
2024-02-19T08:33:57.256Z,3.23
2024-02-19T08:36:25.607Z,4.10
2024-02-19T08:38:54.465Z,3.10
2024-02-19T08:41:22.738Z,5.13
2024-02-19T08:43:50.757Z,3.80
2024-02-19T08:46:18.836Z,2.80
2024-02-19T08:48:48.510Z,2.40
2024-02-19T08:51:16.886Z,6.00
2024-02-19T08:53:46.159Z,5.03
2024-02-19T08:56:15.761Z,6.17
2024-02-19T08:58:44.006Z,9.00
2024-02-19T09:01:14.291Z,5.33
2024-02-19T09:03:42.405Z,6.27
2024-02-19T09:06:11.894Z,4.50
2024-02-19T09:08:40.216Z,7.87
2024-02-19T09:11:08.276Z,6.47
2024-02-19T09:13:37.350Z,5.07
2024-02-19T09:16:06.631Z,11.67
2024-02-19T09:18:35.164Z,7.60
2024-02-19T09:21:03.241Z,3.77
2024-02-19T09:23:32.690Z,6.33
2024-02-19T09:26:00.716Z,3.57
2024-02-19T09:28:28.836Z,3.83
2024-02-19T09:30:56.934Z,5.00
2024-02-19T09:33:25.374Z,7.50
2024-02-19T09:35:53.621Z,4.57
2024-02-19T09:38:22.674Z,3.83
2024-02-19T09:40:52.120Z,6.63
2024-02-19T09:43:21.536Z,4.63
2024-02-19T09:45:51.045Z,3.83
2024-02-19T09:48:20.418Z,11.07
2024-02-19T09:50:49.951Z,3.70
2024-02-19T09:53:19.951Z,6.40
2024-02-19T09:55:48.035Z,4.37
2024-02-19T09:58:17.542Z,6.43
2024-02-19T10:00:45.681Z,11.20
2024-02-19T10:03:14.406Z,3.97
2024-02-19T10:05:42.560Z,6.10
2024-02-19T10:08:15.082Z,3.00
2024-02-19T10:10:46.731Z,2.00
2024-02-19T10:13:15.448Z,3.60
2024-02-19T10:15:44.981Z,6.93
2024-02-19T10:18:16.771Z,4.27
2024-02-19T10:20:47.095Z,6.43
2024-02-19T10:23:15.829Z,5.33
2024-02-19T10:25:43.836Z,4.47
2024-02-19T10:28:11.949Z,5.47
2024-02-19T10:30:41.126Z,7.47
2024-02-19T10:33:10.786Z,5.63
2024-02-19T10:35:38.965Z,9.13
2024-02-19T10:38:07.234Z,5.23
2024-02-19T10:40:35.845Z,9.63
2024-02-19T10:43:04.784Z,6.57
2024-02-19T10:45:33.073Z,7.33
2024-02-19T10:48:01.225Z,4.80
2024-02-19T10:50:34.352Z,5.93
2024-02-19T10:53:02.399Z,7.87
2024-02-19T10:55:41.029Z,7.97
2024-02-19T10:58:18.396Z,6.33
2024-02-19T11:00:46.684Z,9.60
2024-02-19T11:03:15.429Z,6.93
2024-02-19T11:05:46.459Z,11.33
2024-02-19T11:08:21.711Z,7.23
2024-02-19T11:10:50.477Z,5.10
2024-02-19T11:13:22.157Z,3.63
2024-02-19T11:15:50.654Z,6.80
2024-02-19T11:18:19.805Z,7.80
2024-02-19T11:20:50.022Z,4.53
2024-02-19T11:23:18.720Z,4.27
2024-02-19T11:25:47.668Z,8.03
2024-02-19T11:28:16.112Z,10.73
2024-02-19T11:30:44.289Z,9.53
2024-02-19T11:33:15.012Z,4.53
2024-02-19T11:35:45.606Z,5.10
2024-02-19T11:38:15.099Z,5.53
2024-02-19T11:40:43.598Z,4.60
2024-02-19T11:43:12.721Z,9.57
2024-02-19T11:45:40.983Z,6.70
2024-02-19T11:48:09.875Z,4.17
2024-02-19T11:50:38.438Z,8.40
2024-02-19T11:53:08.084Z,9.37
2024-02-19T11:55:40.049Z,9.93
2024-02-19T11:58:10.301Z,7.23
2024-02-19T12:00:39.091Z,9.27
2024-02-19T12:03:07.417Z,3.70
2024-02-19T12:05:35.713Z,5.50
2024-02-19T12:08:03.891Z,4.27
2024-02-19T12:10:33.991Z,8.60
2024-02-19T12:13:03.701Z,3.50
2024-02-19T12:15:32.145Z,11.17
2024-02-19T12:18:00.243Z,5.73
2024-02-19T12:20:28.452Z,4.53
2024-02-19T12:22:56.514Z,8.30
2024-02-19T12:25:26.954Z,4.93
2024-02-19T12:27:55.206Z,4.67
2024-02-19T12:30:26.138Z,6.63
2024-02-19T12:32:55.197Z,7.77
2024-02-19T12:35:23.468Z,12.13
2024-02-19T12:37:51.836Z,5.53
2024-02-19T12:40:20.100Z,6.47
2024-02-19T12:42:48.377Z,7.10
2024-02-19T12:45:18.432Z,5.30
2024-02-19T12:47:49.063Z,3.67
2024-02-19T12:50:19.048Z,9.00
2024-02-19T12:52:47.947Z,5.67
2024-02-19T12:55:19.314Z,11.10
2024-02-19T12:57:47.986Z,5.43
2024-02-19T13:00:16.568Z,4.90
2024-02-19T13:02:44.681Z,6.37
2024-02-19T13:05:14.237Z,7.00
2024-02-19T13:07:43.655Z,6.00
2024-02-19T13:10:12.186Z,6.40
2024-02-19T13:12:40.421Z,3.53
2024-02-19T13:15:08.842Z,4.13
2024-02-19T13:17:42.998Z,5.50
2024-02-19T13:20:16.699Z,6.20
2024-02-19T13:22:45.039Z,5.00
2024-02-19T13:25:13.522Z,2.87
2024-02-19T13:27:41.726Z,2.87
2024-02-19T13:30:11.996Z,2.50
2024-02-19T13:32:40.180Z,4.43
2024-02-19T13:35:13.162Z,3.70
2024-02-19T13:37:43.718Z,5.23
2024-02-19T13:40:13.167Z,8.17
2024-02-19T13:42:41.446Z,5.27
2024-02-19T13:45:11.468Z,4.40
2024-02-19T13:47:40.272Z,5.27
2024-02-19T13:50:09.437Z,3.33
2024-02-19T13:52:37.657Z,3.83
2024-02-19T13:55:08.753Z,5.70
2024-02-19T13:57:37.076Z,4.13
2024-02-19T14:00:06.614Z,6.77
2024-02-19T14:02:34.863Z,4.70
2024-02-19T14:05:03.215Z,10.50
2024-02-19T14:07:31.596Z,4.07
2024-02-19T14:09:59.806Z,5.73
2024-02-19T14:12:29.561Z,6.37
2024-02-19T14:14:57.721Z,4.77
2024-02-19T14:17:25.756Z,6.37
2024-02-19T14:19:54.424Z,2.70
2024-02-19T14:22:23.102Z,8.73
2024-02-19T14:24:52.820Z,6.70
2024-02-19T14:27:20.945Z,2.80
2024-02-19T14:29:50.546Z,2.03
2024-02-19T14:32:18.668Z,8.37
2024-02-19T14:34:47.386Z,5.37
2024-02-19T14:37:15.717Z,5.37
2024-02-19T14:39:44.552Z,4.93
2024-02-19T14:42:12.719Z,2.50
2024-02-19T14:44:42.892Z,5.67
2024-02-19T14:47:13.127Z,3.80
2024-02-19T14:49:41.881Z,6.97
2024-02-19T14:52:10.012Z,3.43
2024-02-19T14:54:38.105Z,4.87
2024-02-19T14:57:06.372Z,4.20
2024-02-19T14:59:36.286Z,2.63
2024-02-19T15:02:04.817Z,3.03
2024-02-19T15:04:34.443Z,2.40
2024-02-19T15:07:02.825Z,4.17
2024-02-19T15:09:31.113Z,1.83
2024-02-19T15:11:59.149Z,2.87
2024-02-19T15:14:27.205Z,3.83
2024-02-19T15:16:55.277Z,3.57
2024-02-19T15:19:23.371Z,1.93
2024-02-19T15:21:52.851Z,6.10
2024-02-19T15:24:20.991Z,9.37
2024-02-19T15:26:49.034Z,11.33
2024-02-19T15:29:18.373Z,8.67
2024-02-19T15:31:46.547Z,8.30
2024-02-19T15:34:14.704Z,5.93
2024-02-19T15:36:42.947Z,10.13
2024-02-19T15:39:13.091Z,7.67
2024-02-19T15:41:41.353Z,9.60
2024-02-19T15:44:09.379Z,7.00
2024-02-19T15:46:37.569Z,6.80
2024-02-19T15:49:05.756Z,9.97
2024-02-19T15:51:34.827Z,7.67
2024-02-19T15:54:03.340Z,5.23
2024-02-19T15:56:32.848Z,4.93
2024-02-19T15:59:00.868Z,9.20
2024-02-19T16:01:30.369Z,8.07
2024-02-19T16:03:58.521Z,6.43
2024-02-19T16:06:29.795Z,7.40
2024-02-19T16:08:58.150Z,4.83
2024-02-19T16:11:26.358Z,7.90
2024-02-19T16:13:58.137Z,6.27
2024-02-19T16:16:26.422Z,5.83
2024-02-19T16:18:54.535Z,8.70
2024-02-19T16:21:22.626Z,6.73
2024-02-19T16:23:50.677Z,7.10
2024-02-19T16:26:18.910Z,4.50
2024-02-19T16:28:47.811Z,4.57
2024-02-19T16:31:19.443Z,5.63
2024-02-19T16:33:49.249Z,7.93
2024-02-19T16:36:18.090Z,15.47
2024-02-19T16:38:46.937Z,6.43
2024-02-19T16:41:16.151Z,7.10
2024-02-19T16:43:44.261Z,6.60
2024-02-19T16:46:12.908Z,9.50
2024-02-19T16:48:43.076Z,7.53
2024-02-19T16:51:12.041Z,6.13
2024-02-19T16:53:40.336Z,7.10
2024-02-19T16:56:11.793Z,7.33
2024-02-19T16:58:40.075Z,10.37
2024-02-19T17:01:11.143Z,13.20
2024-02-19T17:03:40.866Z,12.53
2024-02-19T17:06:10.595Z,9.33
2024-02-19T17:08:38.740Z,10.30
2024-02-19T17:11:06.801Z,10.83
2024-02-19T17:13:37.219Z,11.03
2024-02-19T17:16:06.341Z,12.60
2024-02-19T17:18:34.746Z,6.93
2024-02-19T17:21:05.113Z,9.40
2024-02-19T17:23:34.680Z,10.70
2024-02-19T17:26:02.689Z,8.37
2024-02-19T17:28:30.871Z,10.03
2024-02-19T17:30:59.024Z,14.17
2024-02-19T17:33:26.128Z,10.13
2024-02-19T17:35:54.286Z,13.00
2024-02-19T17:38:22.945Z,13.37
2024-02-19T17:40:53.982Z,11.83
2024-02-19T17:43:22.017Z,14.13
2024-02-19T17:45:50.126Z,10.97
2024-02-19T17:48:18.616Z,13.70
2024-02-19T17:50:49.131Z,8.73
2024-02-19T17:53:17.141Z,8.33
2024-02-19T17:55:46.846Z,10.50
2024-02-19T17:58:16.741Z,13.40
2024-02-19T18:00:44.879Z,10.93
2024-02-19T18:03:13.098Z,10.83
2024-02-19T18:05:41.504Z,14.13
2024-02-19T18:08:09.647Z,9.80
2024-02-19T18:10:38.039Z,11.87
2024-02-19T18:13:08.233Z,7.53
2024-02-19T18:15:37.767Z,19.60
2024-02-19T18:18:06.260Z,8.63
2024-02-19T18:20:34.626Z,11.90
2024-02-19T18:23:04.330Z,8.23
2024-02-19T18:25:32.481Z,8.33
2024-02-19T18:28:00.899Z,5.47
2024-02-19T18:30:29.073Z,9.20
2024-02-19T18:32:59.409Z,7.70
2024-02-19T18:35:27.711Z,4.97
2024-02-19T18:37:55.798Z,6.90
2024-02-19T18:40:24.109Z,7.50
2024-02-19T18:42:53.156Z,4.63
2024-02-19T18:45:21.284Z,4.80
2024-02-19T18:47:49.397Z,5.23
2024-02-19T18:50:19.328Z,6.20
2024-02-19T18:52:47.645Z,7.43
2024-02-19T18:55:15.740Z,5.03
2024-02-19T18:57:43.773Z,7.57
2024-02-19T19:00:12.368Z,6.27
2024-02-19T19:02:41.567Z,6.37
2024-02-19T19:05:09.954Z,8.07
2024-02-19T19:07:39.641Z,10.53
2024-02-19T19:10:09.016Z,14.20
2024-02-19T19:12:37.071Z,23.80
2024-02-19T19:15:08.843Z,8.40
2024-02-19T19:17:37.177Z,11.77
2024-02-19T19:20:10.466Z,9.33
2024-02-19T19:22:40.239Z,6.73
2024-02-19T19:25:09.655Z,7.97
2024-02-19T19:27:37.735Z,9.90
2024-02-19T19:30:06.894Z,8.60
2024-02-19T19:32:36.656Z,8.70
2024-02-19T19:35:05.544Z,5.90
2024-02-19T19:37:33.720Z,10.80
2024-02-19T19:40:07.145Z,14.83
2024-02-19T19:42:36.873Z,5.60
2024-02-19T19:45:06.508Z,7.93
2024-02-19T19:47:35.762Z,7.77
2024-02-19T19:50:04.348Z,7.60
2024-02-19T19:52:35.444Z,9.03
2024-02-19T19:55:05.667Z,6.57
2024-02-19T19:57:33.936Z,5.67
2024-02-19T20:00:02.004Z,5.27
2024-02-19T20:02:30.051Z,6.63
2024-02-19T20:04:58.950Z,7.53
2024-02-19T20:07:27.606Z,5.57
2024-02-19T20:09:55.703Z,5.20
2024-02-19T20:12:25.171Z,4.23
2024-02-19T20:14:54.232Z,8.43
2024-02-19T20:17:23.673Z,7.83
2024-02-19T20:19:51.763Z,6.13
2024-02-19T20:22:19.874Z,11.17
2024-02-19T20:24:48.173Z,7.33
2024-02-19T20:27:16.340Z,8.37
2024-02-19T20:29:45.758Z,7.40
2024-02-19T20:32:15.549Z,6.77
2024-02-19T20:34:46.100Z,8.67
2024-02-19T20:37:14.239Z,6.97
2024-02-19T20:39:42.303Z,12.93
2024-02-19T20:42:11.638Z,11.10
2024-02-19T20:44:41.362Z,7.90
2024-02-19T20:47:11.092Z,10.77
2024-02-19T20:49:40.458Z,11.50
2024-02-19T20:52:09.212Z,8.03
2024-02-19T20:54:37.483Z,5.73
2024-02-19T20:57:07.074Z,8.03
2024-02-19T20:59:35.116Z,9.63
2024-02-19T21:02:03.358Z,8.27
2024-02-19T21:04:36.189Z,6.93
2024-02-19T21:07:05.490Z,6.83
2024-02-19T21:09:33.640Z,6.67
2024-02-19T21:12:01.664Z,8.30
2024-02-19T21:14:29.897Z,6.17
2024-02-19T21:16:57.901Z,7.97
2024-02-19T21:19:26.146Z,8.17
2024-02-19T21:21:55.783Z,6.37
2024-02-19T21:24:25.145Z,9.83
2024-02-19T21:26:54.217Z,7.17
2024-02-19T21:29:27.241Z,10.47
2024-02-19T21:31:56.014Z,13.87
2024-02-19T21:34:24.256Z,9.97
2024-02-19T21:36:53.832Z,11.03
2024-02-19T21:39:23.325Z,4.77
2024-02-19T21:41:52.299Z,6.40
2024-02-19T21:44:21.949Z,7.63
2024-02-19T21:46:50.029Z,4.40
2024-02-19T21:49:20.495Z,6.63
2024-02-19T21:51:49.222Z,5.40
2024-02-19T21:54:17.345Z,5.80
2024-02-19T21:56:46.905Z,4.90
2024-02-19T21:59:14.991Z,4.60
2024-02-19T22:01:43.226Z,4.87
2024-02-19T22:04:11.355Z,4.93
2024-02-19T22:06:41.258Z,4.27
2024-02-19T22:09:09.351Z,4.63
2024-02-19T22:11:37.446Z,4.40
2024-02-19T22:14:08.188Z,3.27
2024-02-19T22:16:36.237Z,2.77
2024-02-19T22:19:04.524Z,3.30
2024-02-19T22:21:32.718Z,4.00
2024-02-19T22:24:01.359Z,2.63
2024-02-19T22:26:29.529Z,3.20
2024-02-19T22:28:57.619Z,3.00
2024-02-19T22:31:27.321Z,1.77
2024-02-19T22:33:55.596Z,1.90
2024-02-19T22:36:23.896Z,2.33
2024-02-19T22:38:51.948Z,4.17
2024-02-19T22:41:20.061Z,2.67
2024-02-19T22:43:48.189Z,3.90
2024-02-19T22:46:16.306Z,3.90
2024-02-19T22:48:45.759Z,1.93
2024-02-19T22:51:14.069Z,5.07
2024-02-19T22:53:42.092Z,2.47
2024-02-19T22:56:10.122Z,2.93
2024-02-19T22:58:38.190Z,1.93
2024-02-19T23:01:06.511Z,1.57
2024-02-19T23:03:34.838Z,3.00
2024-02-19T23:06:04.481Z,1.53
2024-02-19T23:08:32.617Z,3.43
2024-02-19T23:11:00.809Z,6.27
2024-02-19T23:13:28.989Z,4.33
2024-02-19T23:15:57.343Z,1.60
2024-02-19T23:18:25.625Z,1.83
2024-02-19T23:20:53.702Z,4.93
2024-02-19T23:23:23.188Z,1.30
2024-02-19T23:25:54.210Z,9.30
2024-02-19T23:28:23.312Z,3.10
2024-02-19T23:30:53.163Z,4.70
2024-02-19T23:33:21.475Z,4.23
2024-02-19T23:35:49.684Z,8.97
2024-02-19T23:38:24.840Z,3.73
2024-02-19T23:40:52.888Z,4.40
2024-02-19T23:43:21.002Z,4.77
2024-02-19T23:45:49.437Z,5.33
2024-02-19T23:48:17.940Z,4.37
2024-02-19T23:50:46.055Z,3.90
2024-02-19T23:53:16.332Z,3.83
2024-02-19T23:55:46.016Z,12.27
2024-02-19T23:58:14.169Z,4.90
